Hall Beach, Canada
Current Conditions -  °F | °C
As of 10:00 PM on Saturday 24 Jan 2015 (Local Time) from CYUX Reporting Station
Clear Clear  
Wind Chill: -78°   Ceiling: Unl
Heat Index: -45°   Visibility: 9mi
Dew Point: -54°   Wind: 15mph
Humidity: 60%   Direction: 310°NW
Pressure: 29.78"   Gusts: NA
Location:  68.78°N, 81.22°W
Report Text: CYUX 250300Z AUTO 31013KT 9SM CLR M43/M48 A2978 RMK SLP086
Loading
Personal Weather Stations






























Interactive Weather Map New forecast layout! Learn more

10-Day Weather Forecast

Advertisements
Track Severe Weather on mobile